Time;durP1;ratioP1;P1;durP2;ratioP2;P2;SDS_P1;SDS_P2;PMS_P1;PMS_P2;Temp;Humidity;BMP_temperature;BMP_pressure;BME280_temperature;BME280_humidity;BME280_pressure;Samples;Min_cycle;Max_cycle;Signal;HPM_P1;HPM_P2
2023/11/27 00:02:40;0.00;0.00;0.62;0.00;0.00;0.62;4.23;2.33;;;19.80;26.50;;;;;;2270699;61;20399;-59
2023/11/27 00:05:24;0.00;0.00;0.62;0.00;0.00;0.62;2.80;2.13;;;19.80;26.50;;;;;;2270951;61;20423;-57
2023/11/27 00:08:10;0.00;0.00;0.62;0.00;0.00;0.62;2.70;2.00;;;19.80;26.50;;;;;;2268204;61;20382;-61
2023/11/27 00:10:54;0.00;0.00;0.62;0.00;0.00;0.62;3.77;2.40;;;19.80;26.50;;;;;;2271153;61;20355;-57
2023/11/27 00:13:39;0.00;0.00;0.62;0.00;0.00;0.62;2.60;2.03;;;19.80;26.50;;;;;;2270739;61;20471;-58
2023/11/27 00:16:23;0.00;0.00;0.62;0.00;0.00;0.62;3.37;1.73;;;19.80;26.50;;;;;;2271163;61;20922;-59
2023/11/27 00:19:09;0.00;0.00;0.62;0.00;0.00;0.62;3.10;1.97;;;19.80;26.50;;;;;;2268165;61;20367;-58
2023/11/27 00:21:54;0.00;0.00;0.62;0.00;0.00;0.62;2.73;2.20;;;19.80;26.50;;;;;;2270615;61;20437;-57
2023/11/27 00:24:40;0.00;0.00;0.62;0.00;0.00;0.62;2.53;1.80;;;19.80;26.50;;;;;;2271327;61;20390;-62
2023/11/27 00:27:25;0.00;0.00;0.62;0.00;0.00;0.62;2.87;2.33;;;19.80;26.50;;;;;;2271144;61;20367;-57
2023/11/27 00:30:11;0.00;0.00;0.62;0.00;0.00;0.62;2.40;1.40;;;19.80;26.50;;;;;;2270973;61;20360;-59
2023/11/27 00:32:56;0.00;0.00;0.62;0.00;0.00;0.62;2.90;2.00;;;19.80;26.50;;;;;;2267654;61;20471;-60
2023/11/27 00:35:41;0.00;0.00;0.62;0.00;0.00;0.62;2.60;1.80;;;19.80;26.50;;;;;;2270652;61;20391;-58
2023/11/27 00:38:27;0.00;0.00;0.62;0.00;0.00;0.62;3.07;1.80;;;19.80;26.50;;;;;;2268241;61;20374;-64
2023/11/27 00:41:14;0.00;0.00;0.62;0.00;0.00;0.62;2.17;1.40;;;19.80;26.50;;;;;;2271164;61;20417;-62
2023/11/27 00:43:58;0.00;0.00;0.62;0.00;0.00;0.62;2.57;1.87;;;19.80;26.50;;;;;;2270775;61;20375;-57
2023/11/27 00:46:44;0.00;0.00;0.62;0.00;0.00;0.62;2.10;1.53;;;19.80;26.50;;;;;;2267999;61;20375;-59
2023/11/27 00:49:29;0.00;0.00;0.62;0.00;0.00;0.62;2.13;1.60;;;19.80;26.50;;;;;;2270941;61;20417;-58
2023/11/27 00:52:15;0.00;0.00;0.62;0.00;0.00;0.62;2.50;1.60;;;19.80;26.50;;;;;;2271165;61;20387;-58
2023/11/27 00:54:59;0.00;0.00;0.62;0.00;0.00;0.62;2.53;1.67;;;19.80;26.50;;;;;;2271015;61;20922;-55
2023/11/27 00:57:44;0.00;0.00;0.62;0.00;0.00;0.62;2.60;1.80;;;19.80;26.50;;;;;;2267572;61;20496;-58
2023/11/27 01:00:29;0.00;0.00;0.62;0.00;0.00;0.62;2.63;1.70;;;19.90;26.50;;;;;;2271248;61;20967;-58
2023/11/27 01:03:13;0.00;0.00;0.62;0.00;0.00;0.62;3.00;1.67;;;19.80;26.50;;;;;;2270689;61;20973;-59
2023/11/27 01:05:58;0.00;0.00;0.62;0.00;0.00;0.62;2.30;1.60;;;19.80;26.50;;;;;;2267490;61;20363;-67
2023/11/27 01:08:44;0.00;0.00;0.62;0.00;0.00;0.62;2.40;1.70;;;19.80;26.50;;;;;;2267658;61;20363;-58
2023/11/27 01:11:28;0.00;0.00;0.62;0.00;0.00;0.62;2.67;1.70;;;19.80;26.50;;;;;;2271085;61;20367;-58
2023/11/27 01:14:14;0.00;0.00;0.62;0.00;0.00;0.62;2.27;1.53;;;19.80;26.50;;;;;;2268122;61;20817;-54
2023/11/27 01:16:58;0.00;0.00;0.62;0.00;0.00;0.62;2.13;1.30;;;19.80;26.50;;;;;;2270890;61;20764;-59
2023/11/27 01:19:46;0.00;0.00;0.62;0.00;0.00;0.62;2.23;1.63;;;19.80;26.50;;;;;;2267315;61;20399;-55
2023/11/27 01:22:30;0.00;0.00;0.62;0.00;0.00;0.62;2.40;1.40;;;19.80;26.50;;;;;;2270593;61;20409;-59
2023/11/27 01:25:17;0.00;0.00;0.62;0.00;0.00;0.62;1.97;1.33;;;19.80;26.50;;;;;;2271298;61;20364;-59
2023/11/27 01:28:02;0.00;0.00;0.62;0.00;0.00;0.62;2.03;1.40;;;19.80;26.50;;;;;;2270623;61;20367;-56
2023/11/27 01:30:48;0.00;0.00;0.62;0.00;0.00;0.62;2.10;1.23;;;19.80;26.50;;;;;;2262421;61;20509;-58
2023/11/27 01:33:33;0.00;0.00;0.62;0.00;0.00;0.62;2.40;1.30;;;19.80;26.50;;;;;;2270440;61;20379;-60
2023/11/27 01:36:18;0.00;0.00;0.62;0.00;0.00;0.62;2.50;1.50;;;19.80;26.50;;;;;;2270795;61;20363;-60
2023/11/27 01:39:03;0.00;0.00;0.62;0.00;0.00;0.62;2.63;1.80;;;19.80;26.50;;;;;;2271248;61;20493;-59
2023/11/27 01:41:50;0.00;0.00;0.62;0.00;0.00;0.62;2.90;1.53;;;19.80;26.50;;;;;;2270394;61;20797;-59
2023/11/27 01:44:34;0.00;0.00;0.62;0.00;0.00;0.62;2.50;1.50;;;19.80;26.50;;;;;;2271256;61;20359;-59
2023/11/27 01:47:19;0.00;0.00;0.62;0.00;0.00;0.62;2.90;1.90;;;19.80;26.50;;;;;;2271181;61;20410;-57
2023/11/27 01:50:07;0.00;0.00;0.62;0.00;0.00;0.62;2.63;1.33;;;19.80;26.50;;;;;;2267493;61;20953;-59
2023/11/27 01:52:52;0.00;0.00;0.62;0.00;0.00;0.62;3.07;1.80;;;19.80;26.50;;;;;;2267008;61;20387;-58
2023/11/27 01:55:37;0.00;0.00;0.62;0.00;0.00;0.62;2.03;1.20;;;19.90;26.50;;;;;;2267869;61;20414;-58
2023/11/27 01:58:23;0.00;0.00;0.62;0.00;0.00;0.62;2.40;1.47;;;19.80;26.50;;;;;;2267696;61;20358;-58
2023/11/27 02:01:08;0.00;0.00;0.62;0.00;0.00;0.62;2.40;1.50;;;19.80;26.50;;;;;;2267764;61;20382;-57
2023/11/27 02:03:52;0.00;0.00;0.62;0.00;0.00;0.62;2.00;1.30;;;19.80;26.50;;;;;;2266995;61;20397;-56
2023/11/27 02:06:37;0.00;0.00;0.62;0.00;0.00;0.62;2.10;1.30;;;19.80;26.50;;;;;;2267745;61;20451;-59
2023/11/27 02:09:22;0.00;0.00;0.62;0.00;0.00;0.62;2.10;1.30;;;19.80;26.50;;;;;;2267645;61;20378;-55
2023/11/27 02:12:07;0.00;0.00;0.62;0.00;0.00;0.62;3.00;1.77;;;19.80;26.50;;;;;;2267783;61;20850;-59
2023/11/27 02:14:53;0.00;0.00;0.62;0.00;0.00;0.62;2.00;1.20;;;19.80;26.50;;;;;;2274192;57;20408;-57
2023/11/27 02:17:38;0.00;0.00;0.62;0.00;0.00;0.62;2.67;1.77;;;19.90;26.60;;;;;;2275488;61;20766;-57
2023/11/27 02:20:23;0.00;0.00;0.62;0.00;0.00;0.62;2.00;1.50;;;19.80;26.50;;;;;;2275347;61;20449;-60
2023/11/27 02:23:14;0.00;0.00;0.62;0.00;0.00;0.62;2.27;1.27;;;19.90;26.50;;;;;;2272182;61;20481;-60
2023/11/27 02:25:59;0.00;0.00;0.62;0.00;0.00;0.62;2.00;1.30;;;19.80;26.50;;;;;;2271315;61;20401;-58
2023/11/27 02:28:44;0.00;0.00;0.62;0.00;0.00;0.62;2.53;1.60;;;19.90;26.50;;;;;;2272551;61;20755;-61
2023/11/27 02:31:28;0.00;0.00;0.62;0.00;0.00;0.62;2.03;1.30;;;19.90;26.60;;;;;;2276085;61;20405;-55
2023/11/27 02:34:13;0.00;0.00;0.62;0.00;0.00;0.62;2.50;1.60;;;19.90;26.50;;;;;;2275483;61;20378;-58
2023/11/27 02:36:58;0.00;0.00;0.62;0.00;0.00;0.62;2.10;1.20;;;19.90;26.50;;;;;;2275960;61;20403;-61
2023/11/27 02:39:44;0.00;0.00;0.62;0.00;0.00;0.62;1.77;1.10;;;19.90;26.50;;;;;;2276125;61;20889;-56
2023/11/27 02:42:28;0.00;0.00;0.62;0.00;0.00;0.62;2.70;1.60;;;19.90;26.50;;;;;;2274900;61;20386;-57
2023/11/27 02:45:13;0.00;0.00;0.62;0.00;0.00;0.62;2.27;1.37;;;19.80;26.50;;;;;;2275896;61;20402;-57
2023/11/27 02:47:58;0.00;0.00;0.62;0.00;0.00;0.62;2.13;1.30;;;19.90;26.50;;;;;;2272410;61;20420;-55
2023/11/27 02:50:43;0.00;0.00;0.62;0.00;0.00;0.62;2.87;1.37;;;19.90;26.50;;;;;;2272846;61;20393;-57
2023/11/27 02:53:28;0.00;0.00;0.62;0.00;0.00;0.62;1.90;1.10;;;19.90;26.50;;;;;;2275247;61;20392;-59
2023/11/27 02:56:14;0.00;0.00;0.62;0.00;0.00;0.62;2.07;1.10;;;19.90;26.50;;;;;;2275643;61;20380;-58
2023/11/27 02:58:59;0.00;0.00;0.62;0.00;0.00;0.62;2.30;1.30;;;19.90;26.50;;;;;;2275664;61;20388;-57
2023/11/27 03:01:43;0.00;0.00;0.62;0.00;0.00;0.62;2.73;2.00;;;19.90;26.60;;;;;;2275376;61;20396;-57
2023/11/27 03:04:30;0.00;0.00;0.62;0.00;0.00;0.62;3.03;1.47;;;19.90;26.60;;;;;;2275595;61;20427;-57
2023/11/27 03:07:15;0.00;0.00;0.62;0.00;0.00;0.62;2.17;1.20;;;19.90;26.50;;;;;;2276264;61;20369;-59
2023/11/27 03:09:59;0.00;0.00;0.62;0.00;0.00;0.62;1.83;1.17;;;19.90;26.50;;;;;;2272379;61;20953;-59
2023/11/27 03:12:45;0.00;0.00;0.62;0.00;0.00;0.62;2.00;1.33;;;19.90;26.60;;;;;;2271956;61;20536;-58
2023/11/27 03:15:30;0.00;0.00;0.62;0.00;0.00;0.62;2.33;1.47;;;19.90;26.60;;;;;;2275789;61;20382;-59
2023/11/27 03:18:16;0.00;0.00;0.62;0.00;0.00;0.62;1.80;1.23;;;19.90;26.50;;;;;;2271819;61;20384;-56
2023/11/27 03:21:00;0.00;0.00;0.62;0.00;0.00;0.62;2.77;1.50;;;19.90;26.50;;;;;;2275896;61;20440;-60
2023/11/27 03:23:46;0.00;0.00;0.62;0.00;0.00;0.62;2.07;1.40;;;19.90;26.50;;;;;;2275650;61;20428;-60
2023/11/27 03:26:31;0.00;0.00;0.62;0.00;0.00;0.62;2.47;1.20;;;19.90;26.50;;;;;;2271849;61;20398;-59
2023/11/27 03:29:17;0.00;0.00;0.62;0.00;0.00;0.62;1.90;1.03;;;19.90;26.50;;;;;;2275728;61;20435;-60
2023/11/27 03:32:03;0.00;0.00;0.62;0.00;0.00;0.62;2.53;1.63;;;19.90;26.50;;;;;;2269154;61;20888;-57
2023/11/27 03:34:49;0.00;0.00;0.62;0.00;0.00;0.62;2.20;1.40;;;19.90;26.50;;;;;;2271977;61;20413;-61
2023/11/27 03:37:34;0.00;0.00;0.62;0.00;0.00;0.62;2.10;1.17;;;19.90;26.50;;;;;;2272505;61;20445;-56
2023/11/27 03:40:18;0.00;0.00;0.62;0.00;0.00;0.62;2.10;1.37;;;19.90;26.50;;;;;;2275633;61;20392;-58
2023/11/27 03:43:03;0.00;0.00;0.62;0.00;0.00;0.62;2.30;1.40;;;19.90;26.50;;;;;;2275569;61;20409;-59
2023/11/27 03:45:49;0.00;0.00;0.62;0.00;0.00;0.62;2.30;1.40;;;19.90;27.00;;;;;;2269562;61;20361;-59
2023/11/27 03:48:34;0.00;0.00;0.62;0.00;0.00;0.62;2.90;1.57;;;19.90;26.50;;;;;;2275481;61;20382;-60
2023/11/27 03:51:18;0.00;0.00;0.62;0.00;0.00;0.62;2.30;1.43;;;19.90;26.50;;;;;;2272455;61;20434;-53
2023/11/27 03:54:03;0.00;0.00;0.62;0.00;0.00;0.62;1.70;1.03;;;19.90;26.50;;;;;;2275047;61;20562;-63
2023/11/27 03:56:48;0.00;0.00;0.62;0.00;0.00;0.62;1.83;1.30;;;19.90;26.50;;;;;;2275475;61;20412;-57
2023/11/27 03:59:33;0.00;0.00;0.62;0.00;0.00;0.62;2.80;1.27;;;19.90;26.50;;;;;;2275572;61;20384;-58
2023/11/27 04:02:20;0.00;0.00;0.62;0.00;0.00;0.62;1.77;1.00;;;19.90;26.50;;;;;;2275010;61;20424;-54
2023/11/27 04:05:06;0.00;0.00;0.62;0.00;0.00;0.62;2.57;1.53;;;19.90;26.60;;;;;;2275423;61;20844;-56
2023/11/27 04:07:51;0.00;0.00;0.62;0.00;0.00;0.62;1.80;1.20;;;19.90;26.50;;;;;;2275925;61;20358;-56
2023/11/27 04:10:36;0.00;0.00;0.62;0.00;0.00;0.62;3.07;1.40;;;19.90;26.50;;;;;;2275509;61;20426;-55
2023/11/27 04:13:21;0.00;0.00;0.62;0.00;0.00;0.62;1.80;1.20;;;19.90;26.50;;;;;;2270885;61;20512;-57
2023/11/27 04:16:10;0.00;0.00;0.62;0.00;0.00;0.62;2.77;1.40;;;19.90;26.50;;;;;;2275668;61;20385;-59
2023/11/27 04:18:57;0.00;0.00;0.62;0.00;0.00;0.62;2.30;1.53;;;19.90;26.50;;;;;;2275218;61;20366;-59
2023/11/27 04:21:41;0.00;0.00;0.62;0.00;0.00;0.62;2.20;1.50;;;19.90;26.60;;;;;;2271348;61;20399;-61
2023/11/27 04:24:26;0.00;0.00;0.62;0.00;0.00;0.62;2.07;1.33;;;19.90;26.50;;;;;;2275283;61;20412;-58
2023/11/27 04:27:10;0.00;0.00;0.62;0.00;0.00;0.62;2.10;1.53;;;19.90;26.60;;;;;;2275621;61;20358;-60
2023/11/27 04:29:55;0.00;0.00;0.62;0.00;0.00;0.62;1.90;1.30;;;19.90;26.50;;;;;;2275648;61;20365;-58
2023/11/27 04:32:39;0.00;0.00;0.62;0.00;0.00;0.62;2.10;1.30;;;19.90;26.60;;;;;;2274797;61;20470;-54
2023/11/27 04:35:25;0.00;0.00;0.62;0.00;0.00;0.62;2.83;1.53;;;19.80;26.50;;;;;;2273993;61;20390;-56
2023/11/27 04:38:10;0.00;0.00;0.62;0.00;0.00;0.62;1.90;1.30;;;19.90;26.50;;;;;;2272721;61;20347;-60
2023/11/27 04:40:54;0.00;0.00;0.62;0.00;0.00;0.62;2.40;1.60;;;19.80;26.50;;;;;;2272563;61;20475;-58
2023/11/27 04:43:39;0.00;0.00;0.62;0.00;0.00;0.62;2.57;1.53;;;19.90;26.50;;;;;;2272356;61;20488;-61
2023/11/27 04:46:24;0.00;0.00;0.62;0.00;0.00;0.62;2.33;1.57;;;19.90;26.50;;;;;;2272637;61;20385;-60
2023/11/27 04:49:11;0.00;0.00;0.62;0.00;0.00;0.62;1.90;1.33;;;19.90;26.50;;;;;;2272850;61;20354;-53
2023/11/27 04:51:57;0.00;0.00;0.62;0.00;0.00;0.62;2.00;1.30;;;19.90;26.50;;;;;;2272558;61;20397;-56
2023/11/27 04:54:42;0.00;0.00;0.62;0.00;0.00;0.62;1.50;1.00;;;19.90;26.50;;;;;;2268979;61;20913;-59
2023/11/27 04:57:26;0.00;0.00;0.62;0.00;0.00;0.62;2.20;1.27;;;19.90;26.50;;;;;;2272668;61;20446;-58
2023/11/27 05:00:15;0.00;0.00;0.62;0.00;0.00;0.62;2.60;1.30;;;19.90;26.50;;;;;;2272752;61;20761;-57
2023/11/27 05:03:00;0.00;0.00;0.62;0.00;0.00;0.62;3.10;1.20;;;19.90;26.50;;;;;;2271094;61;20386;-62
2023/11/27 05:05:45;0.00;0.00;0.62;0.00;0.00;0.62;1.83;1.33;;;19.90;26.60;;;;;;2272726;61;20458;-67
2023/11/27 05:08:31;0.00;0.00;0.62;0.00;0.00;0.62;1.80;1.40;;;19.90;26.50;;;;;;2272539;61;20366;-59
2023/11/27 05:11:19;0.00;0.00;0.62;0.00;0.00;0.62;2.40;1.50;;;19.90;26.50;;;;;;2272671;61;20366;-59
2023/11/27 05:14:04;0.00;0.00;0.62;0.00;0.00;0.62;2.10;1.40;;;19.90;26.50;;;;;;2272744;61;20920;-60
2023/11/27 05:16:48;0.00;0.00;0.62;0.00;0.00;0.62;3.13;1.27;;;19.90;26.50;;;;;;2272214;61;20429;-58
2023/11/27 05:19:35;0.00;0.00;0.62;0.00;0.00;0.62;2.30;1.40;;;19.90;26.60;;;;;;2272596;61;20386;-57
2023/11/27 05:22:20;0.00;0.00;0.62;0.00;0.00;0.62;1.83;1.33;;;19.90;26.50;;;;;;2272287;61;20861;-59
2023/11/27 05:25:09;0.00;0.00;0.62;0.00;0.00;0.62;2.30;1.47;;;19.90;26.50;;;;;;2272342;61;20446;-59
2023/11/27 05:27:53;0.00;0.00;0.62;0.00;0.00;0.62;2.30;1.50;;;19.90;26.60;;;;;;2272613;61;20378;-58
2023/11/27 05:30:38;0.00;0.00;0.62;0.00;0.00;0.62;1.90;1.20;;;19.90;26.60;;;;;;2272601;61;20394;-59
2023/11/27 05:33:22;0.00;0.00;0.62;0.00;0.00;0.62;1.87;1.30;;;19.90;26.50;;;;;;2272174;61;20382;-59
2023/11/27 05:36:09;0.00;0.00;0.62;0.00;0.00;0.62;1.97;1.30;;;19.90;26.50;;;;;;2272534;61;20429;-61
2023/11/27 05:38:54;0.00;0.00;0.62;0.00;0.00;0.62;2.40;1.30;;;19.90;26.50;;;;;;2272085;61;20371;-60
2023/11/27 05:41:41;0.00;0.00;0.62;0.00;0.00;0.62;2.07;1.20;;;19.90;26.50;;;;;;2272130;61;20362;-60
2023/11/27 05:44:25;0.00;0.00;0.62;0.00;0.00;0.62;2.00;1.53;;;19.90;26.50;;;;;;2272371;61;20412;-59
2023/11/27 05:47:11;0.00;0.00;0.62;0.00;0.00;0.62;1.83;1.20;;;19.90;26.50;;;;;;2272054;61;20411;-58
2023/11/27 05:49:56;0.00;0.00;0.62;0.00;0.00;0.62;2.73;1.40;;;19.90;26.60;;;;;;2269203;61;20714;-58
2023/11/27 05:52:41;0.00;0.00;0.62;0.00;0.00;0.62;2.17;1.27;;;19.90;26.60;;;;;;2272168;61;20385;-61
2023/11/27 05:55:26;0.00;0.00;0.62;0.00;0.00;0.62;2.47;1.60;;;19.90;26.60;;;;;;2272327;61;20426;-59
2023/11/27 05:58:12;0.00;0.00;0.62;0.00;0.00;0.62;3.40;1.60;;;19.90;26.50;;;;;;2272416;61;20369;-60
2023/11/27 06:00:57;0.00;0.00;0.62;0.00;0.00;0.62;2.00;1.33;;;19.90;26.50;;;;;;2272212;61;20424;-63
2023/11/27 06:03:42;0.00;0.00;0.62;0.00;0.00;0.62;2.60;1.70;;;19.90;26.50;;;;;;2272238;61;20436;-62
2023/11/27 06:06:27;0.00;0.00;0.62;0.00;0.00;0.62;2.13;1.47;;;19.90;26.50;;;;;;2272473;61;20385;-59
2023/11/27 06:09:12;0.00;0.00;0.62;0.00;0.00;0.62;2.87;1.77;;;19.90;26.50;;;;;;2272160;61;20818;-58
2023/11/27 06:11:57;0.00;0.00;0.62;0.00;0.00;0.62;3.13;1.60;;;19.90;26.50;;;;;;2272080;61;20405;-56
2023/11/27 06:14:43;0.00;0.00;0.62;0.00;0.00;0.62;2.47;1.60;;;19.90;26.50;;;;;;2272603;61;20520;-55
2023/11/27 06:17:28;0.00;0.00;0.62;0.00;0.00;0.62;3.10;1.83;;;19.90;26.50;;;;;;2269019;61;20781;-58
2023/11/27 06:20:14;0.00;0.00;0.62;0.00;0.00;0.62;2.73;1.40;;;19.90;26.60;;;;;;2269265;61;20346;-60
2023/11/27 06:22:59;0.00;0.00;0.62;0.00;0.00;0.62;1.97;1.53;;;19.90;26.50;;;;;;2270807;61;20374;-62
2023/11/27 06:25:43;0.00;0.00;0.62;0.00;0.00;0.62;3.57;1.60;;;19.90;26.50;;;;;;2272451;61;20424;-59
2023/11/27 06:28:28;0.00;0.00;0.62;0.00;0.00;0.62;2.27;1.47;;;19.90;26.50;;;;;;2272516;61;20408;-60
2023/11/27 06:31:15;0.00;0.00;0.62;0.00;0.00;0.62;4.23;2.03;;;19.90;26.50;;;;;;2272177;61;20392;-61
2023/11/27 06:34:00;0.00;0.00;0.62;0.00;0.00;0.62;2.43;1.60;;;19.90;26.50;;;;;;2272289;61;20902;-54
2023/11/27 06:36:45;0.00;0.00;0.62;0.00;0.00;0.62;2.33;1.20;;;19.90;26.60;;;;;;2272750;61;20757;-60
2023/11/27 06:39:29;0.00;0.00;0.62;0.00;0.00;0.62;2.33;1.40;;;19.90;26.50;;;;;;2272116;61;20489;-57
2023/11/27 06:42:14;0.00;0.00;0.62;0.00;0.00;0.62;2.50;1.70;;;19.90;26.50;;;;;;2272039;61;20978;-60
2023/11/27 06:44:59;0.00;0.00;0.62;0.00;0.00;0.62;2.90;1.70;;;19.90;26.60;;;;;;2272117;61;20380;-62
2023/11/27 06:47:44;0.00;0.00;0.62;0.00;0.00;0.62;2.80;1.70;;;19.90;26.60;;;;;;2272519;61;20432;-56
2023/11/27 06:50:29;0.00;0.00;0.62;0.00;0.00;0.62;2.00;1.30;;;19.90;26.50;;;;;;2272405;61;20378;-62
2023/11/27 06:53:14;0.00;0.00;0.62;0.00;0.00;0.62;1.80;1.10;;;19.90;26.50;;;;;;2271740;61;20389;-59
2023/11/27 06:55:58;0.00;0.00;0.62;0.00;0.00;0.62;2.50;1.57;;;19.90;26.50;;;;;;2272328;61;20393;-57
2023/11/27 06:58:43;0.00;0.00;0.62;0.00;0.00;0.62;2.20;1.43;;;19.90;26.50;;;;;;2272461;61;20361;-61
2023/11/27 07:01:29;0.00;0.00;0.62;0.00;0.00;0.62;2.80;1.57;;;19.90;26.60;;;;;;2272725;61;21315;-55
2023/11/27 07:04:14;0.00;0.00;0.62;0.00;0.00;0.62;3.97;1.77;;;19.90;26.50;;;;;;2273253;61;20397;-60
2023/11/27 07:06:59;0.00;0.00;0.62;0.00;0.00;0.62;1.93;1.43;;;19.90;26.50;;;;;;2272806;61;20454;-59
2023/11/27 07:09:43;0.00;0.00;0.62;0.00;0.00;0.62;2.53;1.80;;;19.90;26.50;;;;;;2273106;61;20446;-58
2023/11/27 07:12:29;0.00;0.00;0.62;0.00;0.00;0.62;2.10;1.37;;;19.90;26.50;;;;;;2272559;61;20470;-57
2023/11/27 07:15:14;0.00;0.00;0.62;0.00;0.00;0.62;2.50;1.60;;;19.90;26.50;;;;;;2272384;61;20460;-59
2023/11/27 07:18:01;0.00;0.00;0.62;0.00;0.00;0.62;2.73;1.50;;;19.90;26.60;;;;;;2272964;61;20481;-61
2023/11/27 07:20:47;0.00;0.00;0.62;0.00;0.00;0.62;2.37;1.60;;;19.90;26.50;;;;;;2272852;61;20394;-56
2023/11/27 07:23:32;0.00;0.00;0.62;0.00;0.00;0.62;2.57;2.13;;;19.90;26.50;;;;;;2272082;61;20390;-60
2023/11/27 07:26:16;0.00;0.00;0.62;0.00;0.00;0.62;3.07;1.80;;;19.90;26.50;;;;;;2272598;61;20369;-56
2023/11/27 07:29:01;0.00;0.00;0.62;0.00;0.00;0.62;3.10;2.00;;;19.90;26.60;;;;;;2508045;53;20363;-58
2023/11/27 07:31:47;0.00;0.00;0.62;0.00;0.00;0.62;2.50;1.90;;;19.90;26.50;;;;;;2268377;61;20433;-61
2023/11/27 07:34:31;0.00;0.00;0.62;0.00;0.00;0.62;2.40;1.83;;;19.90;26.50;;;;;;2269027;61;20478;-57
2023/11/27 07:37:17;0.00;0.00;0.62;0.00;0.00;0.62;2.73;2.23;;;19.90;26.60;;;;;;2268389;61;20447;-56
2023/11/27 07:40:03;0.00;0.00;0.62;0.00;0.00;0.62;3.03;2.13;;;19.90;26.60;;;;;;2268744;61;20383;-60
2023/11/27 07:42:48;0.00;0.00;0.62;0.00;0.00;0.62;3.57;2.40;;;19.90;26.50;;;;;;2268555;61;20982;-61
2023/11/27 07:45:34;0.00;0.00;0.62;0.00;0.00;0.62;2.97;2.20;;;19.90;26.50;;;;;;2268267;61;20421;-58
2023/11/27 07:48:19;0.00;0.00;0.62;0.00;0.00;0.62;4.20;2.70;;;19.90;26.60;;;;;;2268992;61;20359;-61
2023/11/27 07:51:04;0.00;0.00;0.62;0.00;0.00;0.62;3.63;2.43;;;19.90;26.50;;;;;;2265524;61;20366;-61
2023/11/27 07:53:50;0.00;0.00;0.62;0.00;0.00;0.62;5.20;3.37;;;19.90;26.50;;;;;;2269653;61;20431;-57
2023/11/27 07:56:35;0.00;0.00;0.62;0.00;0.00;0.62;3.93;2.57;;;19.90;26.50;;;;;;2272894;61;20386;-61
2023/11/27 07:59:20;0.00;0.00;0.62;0.00;0.00;0.62;2.77;2.07;;;19.90;26.50;;;;;;2272649;61;20420;-57
2023/11/27 08:02:05;0.00;0.00;0.62;0.00;0.00;0.62;4.17;2.90;;;19.90;26.50;;;;;;2269100;61;20385;-57
2023/11/27 08:04:50;0.00;0.00;0.62;0.00;0.00;0.62;3.17;2.37;;;19.90;26.50;;;;;;2272972;61;20354;-57
2023/11/27 08:07:34;0.00;0.00;0.62;0.00;0.00;0.62;3.50;2.63;;;19.90;26.50;;;;;;2272452;61;20362;-61
2023/11/27 08:10:21;0.00;0.00;0.62;0.00;0.00;0.62;4.13;2.50;;;19.90;26.60;;;;;;2272778;61;20432;-57
2023/11/27 08:13:06;0.00;0.00;0.62;0.00;0.00;0.62;4.33;2.50;;;19.90;26.60;;;;;;2272247;61;20390;-61
2023/11/27 08:15:52;0.00;0.00;0.62;0.00;0.00;0.62;3.60;2.77;;;19.90;26.50;;;;;;2269313;61;20415;-56
2023/11/27 08:18:38;0.00;0.00;0.62;0.00;0.00;0.62;4.77;3.60;;;19.90;26.50;;;;;;2272814;61;20432;-55
2023/11/27 08:21:22;0.00;0.00;0.62;0.00;0.00;0.62;3.67;2.90;;;19.90;27.10;;;;;;2272531;61;20393;-60
2023/11/27 08:24:07;0.00;0.00;0.62;0.00;0.00;0.62;4.20;2.70;;;19.90;26.50;;;;;;2272677;61;20354;-59
2023/11/27 08:26:56;0.00;0.00;0.62;0.00;0.00;0.62;4.23;2.90;;;19.90;26.60;;;;;;2272819;61;20770;-59
2023/11/27 08:29:42;0.00;0.00;0.62;0.00;0.00;0.62;3.87;3.00;;;19.90;26.50;;;;;;2272549;61;20363;-59
2023/11/27 08:32:27;0.00;0.00;0.62;0.00;0.00;0.62;5.10;3.57;;;19.90;26.60;;;;;;2272290;61;20467;-58
2023/11/27 08:35:11;0.00;0.00;0.62;0.00;0.00;0.62;4.43;2.90;;;19.90;26.50;;;;;;2272787;61;20921;-58
2023/11/27 08:37:57;0.00;0.00;0.62;0.00;0.00;0.62;4.23;2.80;;;19.90;27.00;;;;;;2272548;61;20936;-59
2023/11/27 08:40:42;0.00;0.00;0.62;0.00;0.00;0.62;4.63;3.53;;;19.90;26.50;;;;;;2272879;61;20822;-64
2023/11/27 08:43:28;0.00;0.00;0.62;0.00;0.00;0.62;3.73;3.27;;;19.90;26.50;;;;;;2272219;61;20382;-61
2023/11/27 08:46:13;0.00;0.00;0.62;0.00;0.00;0.62;4.10;3.40;;;19.90;26.50;;;;;;2272775;61;20398;-62
2023/11/27 08:48:58;0.00;0.00;0.62;0.00;0.00;0.62;3.37;2.80;;;19.90;26.50;;;;;;2269577;61;20394;-60
2023/11/27 08:51:47;0.00;0.00;0.62;0.00;0.00;0.62;4.40;3.33;;;19.90;26.50;;;;;;2272025;61;20362;-56
2023/11/27 08:54:32;0.00;0.00;0.62;0.00;0.00;0.62;4.07;3.30;;;19.90;26.50;;;;;;2269303;61;20894;-57
2023/11/27 08:57:17;0.00;0.00;0.62;0.00;0.00;0.62;4.70;3.57;;;19.90;26.50;;;;;;2272564;61;20499;-59
2023/11/27 09:00:12;0.00;0.00;0.62;0.00;0.00;0.62;4.73;3.93;;;19.90;26.50;;;;;;2272474;61;20408;-62
2023/11/27 09:02:57;0.00;0.00;0.62;0.00;0.00;0.62;4.43;3.50;;;19.90;26.60;;;;;;2272295;61;20398;-58
2023/11/27 09:05:42;0.00;0.00;0.62;0.00;0.00;0.62;4.33;3.60;;;19.90;26.50;;;;;;2272525;61;20392;-61
2023/11/27 09:08:27;0.00;0.00;0.62;0.00;0.00;0.62;4.20;3.30;;;19.90;26.50;;;;;;2272463;61;20358;-56
2023/11/27 09:11:12;0.00;0.00;0.62;0.00;0.00;0.62;4.03;3.20;;;19.90;26.50;;;;;;2272820;61;20362;-52
2023/11/27 09:13:56;0.00;0.00;0.62;0.00;0.00;0.62;3.67;3.10;;;19.90;26.50;;;;;;2272090;61;21003;-57
2023/11/27 09:16:42;0.00;0.00;0.62;0.00;0.00;0.62;4.20;3.50;;;19.90;26.50;;;;;;2272592;61;20386;-58
2023/11/27 09:19:27;0.00;0.00;0.62;0.00;0.00;0.62;3.93;3.43;;;19.90;26.50;;;;;;2272577;61;20370;-56
2023/11/27 09:22:12;0.00;0.00;0.62;0.00;0.00;0.62;5.77;4.30;;;19.90;26.50;;;;;;2271831;61;20412;-58
2023/11/27 09:24:56;0.00;0.00;0.62;0.00;0.00;0.62;5.20;3.60;;;19.90;26.60;;;;;;2271628;61;20358;-59
2023/11/27 09:27:41;0.00;0.00;0.62;0.00;0.00;0.62;3.53;2.87;;;19.90;26.50;;;;;;2272478;61;20901;-59
2023/11/27 09:30:25;0.00;0.00;0.62;0.00;0.00;0.62;5.20;4.00;;;19.90;26.50;;;;;;2272670;61;20361;-58
2023/11/27 09:33:13;0.00;0.00;0.62;0.00;0.00;0.62;4.20;3.27;;;19.90;26.50;;;;;;2272408;61;20386;-57
2023/11/27 09:35:57;0.00;0.00;0.62;0.00;0.00;0.62;3.60;3.10;;;19.90;26.60;;;;;;2272101;61;20823;-57
2023/11/27 09:38:43;0.00;0.00;0.62;0.00;0.00;0.62;5.20;3.50;;;19.90;26.60;;;;;;2272688;61;20409;-58
2023/11/27 09:41:28;0.00;0.00;0.62;0.00;0.00;0.62;4.70;3.30;;;19.90;26.50;;;;;;2272590;61;20362;-61
2023/11/27 09:44:13;0.00;0.00;0.62;0.00;0.00;0.62;3.73;3.33;;;19.90;26.50;;;;;;2272157;61;20358;-62
2023/11/27 09:46:59;0.00;0.00;0.62;0.00;0.00;0.62;4.30;3.60;;;19.90;26.50;;;;;;2272664;61;20432;-59
2023/11/27 09:49:49;0.00;0.00;0.62;0.00;0.00;0.62;3.60;2.83;;;19.90;26.50;;;;;;2272332;61;20370;-59
2023/11/27 09:52:49;0.00;0.00;0.62;0.00;0.00;0.62;4.60;3.40;;;19.90;26.60;;;;;;2272204;61;20432;-56
2023/11/27 09:55:37;0.00;0.00;0.62;0.00;0.00;0.62;6.07;3.97;;;19.90;26.50;;;;;;2272531;61;20772;-59
2023/11/27 09:58:24;0.00;0.00;0.62;0.00;0.00;0.62;4.07;3.17;;;19.90;26.50;;;;;;2272097;61;20359;-62
2023/11/27 10:01:13;0.00;0.00;0.62;0.00;0.00;0.62;4.80;3.87;;;20.00;26.60;;;;;;2272573;61;20346;-62
2023/11/27 10:04:06;0.00;0.00;0.62;0.00;0.00;0.62;4.70;3.80;;;19.90;26.50;;;;;;2272254;61;20983;-59
2023/11/27 10:06:52;0.00;0.00;0.62;0.00;0.00;0.62;5.50;4.03;;;19.90;26.50;;;;;;2272261;61;20384;-59
2023/11/27 10:09:37;0.00;0.00;0.62;0.00;0.00;0.62;4.03;3.00;;;19.90;26.60;;;;;;2272718;61;20412;-54
2023/11/27 10:12:28;0.00;0.00;0.62;0.00;0.00;0.62;4.97;4.00;;;19.90;26.50;;;;;;2271657;61;20427;-59
2023/11/27 10:15:15;0.00;0.00;0.62;0.00;0.00;0.62;5.60;3.33;;;19.90;26.50;;;;;;2272353;61;20822;-58
2023/11/27 10:18:01;0.00;0.00;0.62;0.00;0.00;0.62;4.60;3.50;;;19.90;26.60;;;;;;2272501;61;20370;-58
2023/11/27 10:20:47;0.00;0.00;0.62;0.00;0.00;0.62;4.53;3.33;;;19.90;26.50;;;;;;2272127;61;20865;-58
2023/11/27 10:23:35;0.00;0.00;0.62;0.00;0.00;0.62;3.90;3.50;;;19.90;26.50;;;;;;2272234;61;20390;-60
2023/11/27 10:26:20;0.00;0.00;0.62;0.00;0.00;0.62;4.43;3.47;;;19.90;26.60;;;;;;2272461;61;20412;-63
2023/11/27 10:29:06;0.00;0.00;0.62;0.00;0.00;0.62;3.73;3.20;;;19.90;26.50;;;;;;2272263;61;20771;-59
2023/11/27 10:31:54;0.00;0.00;0.62;0.00;0.00;0.62;3.57;2.90;;;19.90;26.60;;;;;;2271909;61;20856;-57
2023/11/27 10:34:40;0.00;0.00;0.62;0.00;0.00;0.62;4.60;3.43;;;19.90;26.60;;;;;;2272782;61;20365;-59
2023/11/27 10:37:25;0.00;0.00;0.62;0.00;0.00;0.62;4.33;3.00;;;19.90;26.60;;;;;;2273490;61;20362;-57
2023/11/27 10:40:14;0.00;0.00;0.62;0.00;0.00;0.62;3.97;3.33;;;19.90;26.50;;;;;;2273744;61;20362;-57
2023/11/27 10:43:00;0.00;0.00;0.62;0.00;0.00;0.62;3.90;2.73;;;19.90;26.50;;;;;;2271744;61;20378;-57
2023/11/27 10:45:46;0.00;0.00;0.62;0.00;0.00;0.62;4.40;3.10;;;20.00;26.60;;;;;;2273363;61;20366;-56
2023/11/27 10:48:31;0.00;0.00;0.62;0.00;0.00;0.62;3.50;2.50;;;19.90;26.50;;;;;;2273363;61;20362;-58
2023/11/27 10:51:17;0.00;0.00;0.62;0.00;0.00;0.62;3.70;3.27;;;19.90;26.50;;;;;;2273279;61;20358;-57
2023/11/27 10:54:03;0.00;0.00;0.62;0.00;0.00;0.62;4.10;3.03;;;19.90;26.60;;;;;;2273345;61;20447;-58